createdAt,value
2023-04-26T00:00:17.803Z,8.158569
2023-04-26T00:01:27.532Z,8.148499
2023-04-26T00:02:37.261Z,8.188782
2023-04-26T00:03:47.079Z,8.259277
2023-04-26T00:04:55.943Z,8.329773
2023-04-26T00:06:05.410Z,8.339844
2023-04-26T00:07:15.098Z,8.188782
2023-04-26T00:08:22.853Z,8.158569
2023-04-26T00:09:31.584Z,8.178711
2023-04-26T00:10:41.275Z,8.098145
2023-04-26T00:11:50.003Z,8.229065
2023-04-26T00:12:59.690Z,8.229065
2023-04-26T00:14:08.395Z,8.279419
2023-04-26T00:15:17.083Z,8.188782
2023-04-26T00:16:26.855Z,8.259277
2023-04-26T00:17:35.488Z,8.259277
2023-04-26T00:18:44.140Z,8.178711
2023-04-26T00:19:53.819Z,8.259277
2023-04-26T00:21:02.511Z,8.279419
2023-04-26T00:22:11.226Z,8.339844
2023-04-26T00:23:20.960Z,8.370056
2023-04-26T00:24:28.668Z,8.158569
2023-04-26T00:25:38.318Z,8.047791
2023-04-26T00:26:48.084Z,8.178711
2023-04-26T00:27:57.788Z,8.098145
2023-04-26T00:29:06.591Z,8.118286
2023-04-26T00:30:16.319Z,8.088074
2023-04-26T00:31:26.020Z,8.158569
2023-04-26T00:32:34.715Z,8.128357
2023-04-26T00:33:44.406Z,8.188782
2023-04-26T00:34:54.113Z,8.229065
2023-04-26T00:36:03.818Z,8.198853
2023-04-26T00:37:12.495Z,8.259277
2023-04-26T00:38:22.229Z,8.229065
2023-04-26T00:39:28.905Z,8.259277
2023-04-26T00:40:38.573Z,8.178711
2023-04-26T00:41:48.264Z,8.128357
2023-04-26T00:42:56.945Z,8.178711
2023-04-26T00:44:06.697Z,8.057861
2023-04-26T00:45:14.387Z,8.078003
2023-04-26T00:46:24.088Z,8.148499
2023-04-26T00:47:33.793Z,8.188782
2023-04-26T00:48:42.528Z,8.088074
2023-04-26T00:49:52.174Z,8.178711
2023-04-26T00:51:02.844Z,8.128357
2023-04-26T00:52:11.578Z,8.178711
2023-04-26T00:53:21.328Z,8.229065
2023-04-26T00:54:30.061Z,8.239136
2023-04-26T00:55:38.845Z,8.158569
2023-04-26T00:56:48.503Z,8.148499
2023-04-26T00:57:56.210Z,7.997437
2023-04-26T00:59:06.001Z,8.007507
2023-04-26T01:00:14.714Z,8.078003
2023-04-26T01:01:23.437Z,7.937012
2023-04-26T01:02:33.224Z,8.007507
2023-04-26T01:03:42.004Z,7.896729
2023-04-26T01:04:51.566Z,7.967224
2023-04-26T01:06:01.280Z,7.977295
2023-04-26T01:07:10.980Z,7.997437
2023-04-26T01:08:20.722Z,8.007507
2023-04-26T01:09:29.359Z,7.896729
2023-04-26T01:10:38.125Z,7.896729
2023-04-26T01:11:47.823Z,7.796021
2023-04-26T01:12:57.504Z,7.796021
2023-04-26T01:14:05.231Z,7.866516
2023-04-26T01:15:14.929Z,7.826233
2023-04-26T01:16:23.649Z,7.947083
2023-04-26T01:17:31.285Z,7.997437
2023-04-26T01:18:40.986Z,7.947083
2023-04-26T01:19:50.701Z,7.997437
2023-04-26T01:21:02.116Z,8.047791
2023-04-26T01:22:10.102Z,7.977295
2023-04-26T01:23:19.781Z,8.007507
2023-04-26T01:24:29.477Z,7.947083
2023-04-26T01:25:38.178Z,7.876587
2023-04-26T01:26:46.918Z,7.816162
2023-04-26T01:27:56.620Z,7.765808
2023-04-26T01:29:05.361Z,7.715454
2023-04-26T01:30:14.043Z,7.796021
2023-04-26T01:31:23.784Z,7.846375
2023-04-26T01:32:33.552Z,7.816162
2023-04-26T01:33:44.308Z,7.826233
2023-04-26T01:34:52.984Z,7.866516
2023-04-26T01:36:01.693Z,7.906799
2023-04-26T01:37:11.430Z,7.896729
2023-04-26T01:38:21.111Z,7.78595
2023-04-26T01:39:29.880Z,7.765808
2023-04-26T01:40:39.610Z,7.765808
2023-04-26T01:41:47.310Z,7.755737
2023-04-26T01:42:57.000Z,7.634888
2023-04-26T01:44:05.701Z,7.685242
2023-04-26T01:45:13.404Z,7.745667
2023-04-26T01:46:23.173Z,7.715454
2023-04-26T01:47:31.865Z,7.755737
2023-04-26T01:48:40.715Z,7.866516
2023-04-26T01:49:50.489Z,7.765808
2023-04-26T01:50:58.191Z,7.796021
2023-04-26T01:52:07.954Z,7.715454
2023-04-26T01:53:17.712Z,7.755737
2023-04-26T01:54:26.480Z,7.78595
2023-04-26T01:55:36.202Z,7.78595
2023-04-26T01:56:44.913Z,7.725525
2023-04-26T01:57:54.651Z,7.745667
2023-04-26T01:59:04.395Z,7.614746
2023-04-26T02:00:12.179Z,7.655029
2023-04-26T02:01:21.965Z,7.695312
2023-04-26T02:02:31.652Z,7.685242
2023-04-26T02:03:39.368Z,7.6651
2023-04-26T02:04:49.040Z,7.584534
2023-04-26T02:05:57.715Z,7.584534
2023-04-26T02:07:06.426Z,7.574463
2023-04-26T02:08:16.099Z,7.614746
2023-04-26T02:09:25.878Z,7.53418
2023-04-26T02:10:35.596Z,7.53418
2023-04-26T02:11:45.333Z,7.514038
2023-04-26T02:12:54.037Z,7.564392
2023-04-26T02:14:03.755Z,7.604675
2023-04-26T02:15:13.446Z,7.393188
2023-04-26T02:16:22.141Z,7.383118
2023-04-26T02:17:31.830Z,7.483826
2023-04-26T02:18:39.545Z,7.483826
2023-04-26T02:19:49.319Z,7.393188
2023-04-26T02:20:58.119Z,7.383118
2023-04-26T02:22:07.760Z,7.393188
2023-04-26T02:23:17.482Z,7.29248
2023-04-26T02:24:25.218Z,7.332764
2023-04-26T02:25:34.908Z,7.332764
2023-04-26T02:26:44.606Z,7.362976
2023-04-26T02:27:54.380Z,7.312622
2023-04-26T02:29:04.114Z,7.242126
2023-04-26T02:30:12.956Z,7.312622
2023-04-26T02:31:23.007Z,7.29248
2023-04-26T02:32:31.520Z,7.29248
2023-04-26T02:33:40.286Z,7.242126
2023-04-26T02:34:50.051Z,7.28241
2023-04-26T02:35:59.762Z,7.28241
2023-04-26T02:37:09.458Z,7.29248
2023-04-26T02:38:19.194Z,7.383118
2023-04-26T02:39:28.861Z,7.393188
2023-04-26T02:40:38.576Z,7.322693
2023-04-26T02:41:48.317Z,7.252197
2023-04-26T02:42:57.073Z,7.252197
2023-04-26T02:44:06.788Z,7.201843
2023-04-26T02:45:16.574Z,7.201843
2023-04-26T02:46:25.397Z,7.060852
2023-04-26T02:47:35.003Z,7.000427
2023-04-26T02:48:43.731Z,7.070923
2023-04-26T02:49:51.474Z,7.151489
2023-04-26T02:51:01.188Z,7.201843
2023-04-26T02:52:08.906Z,7.111206
2023-04-26T02:53:18.713Z,7.131348
2023-04-26T02:54:29.132Z,7.141418
2023-04-26T02:55:36.814Z,7.111206
2023-04-26T02:56:46.567Z,7.131348
2023-04-26T02:57:56.230Z,7.03064
2023-04-26T02:59:03.902Z,7.060852
2023-04-26T03:00:13.674Z,7.050781
2023-04-26T03:01:22.348Z,6.929932
2023-04-26T03:02:32.095Z,6.990356
2023-04-26T03:03:41.842Z,6.970215
2023-04-26T03:04:50.480Z,6.970215
2023-04-26T03:06:00.164Z,6.919861
2023-04-26T03:07:08.874Z,6.950073
2023-04-26T03:08:17.596Z,6.929932
2023-04-26T03:09:27.347Z,6.889648
2023-04-26T03:10:37.073Z,6.849365
2023-04-26T03:11:44.846Z,6.919861
2023-04-26T03:12:54.566Z,6.879578
2023-04-26T03:14:04.239Z,6.889648
2023-04-26T03:15:11.930Z,6.960144
2023-04-26T03:16:21.712Z,6.950073
2023-04-26T03:17:31.532Z,6.970215
2023-04-26T03:18:40.207Z,6.929932
2023-04-26T03:19:49.929Z,7.050781
2023-04-26T03:20:58.617Z,7.000427
2023-04-26T03:22:08.325Z,6.919861
2023-04-26T03:23:17.999Z,6.950073
2023-04-26T03:24:27.735Z,6.960144
2023-04-26T03:25:37.420Z,6.960144
2023-04-26T03:26:47.107Z,7.000427
2023-04-26T03:27:56.884Z,6.929932
2023-04-26T03:29:06.588Z,6.950073
2023-04-26T03:30:15.309Z,7.050781
2023-04-26T03:31:25.065Z,7.060852
2023-04-26T03:32:34.760Z,7.101135
2023-04-26T03:33:43.419Z,7.070923
2023-04-26T03:34:53.424Z,7.070923
2023-04-26T03:36:02.140Z,7.101135
2023-04-26T03:37:10.810Z,7.070923
2023-04-26T03:38:20.525Z,6.960144
2023-04-26T03:39:29.304Z,6.889648
2023-04-26T03:40:38.960Z,6.839294
2023-04-26T03:41:47.672Z,6.929932
2023-04-26T03:42:57.502Z,7.020569
2023-04-26T03:44:07.230Z,6.990356
2023-04-26T03:45:16.021Z,7.03064
2023-04-26T03:46:24.792Z,7.131348
2023-04-26T03:47:34.381Z,7.101135
2023-04-26T03:48:43.091Z,6.990356
2023-04-26T03:49:52.776Z,7.000427
2023-04-26T03:51:02.472Z,7.101135
2023-04-26T03:52:11.190Z,7.050781
2023-04-26T03:53:20.865Z,7.070923
2023-04-26T03:54:28.556Z,6.990356
2023-04-26T03:55:38.287Z,7.111206
2023-04-26T03:56:48.045Z,7.000427
2023-04-26T03:57:56.761Z,7.050781
2023-04-26T03:59:06.437Z,6.990356
2023-04-26T04:00:16.255Z,7.020569
2023-04-26T04:01:24.880Z,7.111206
2023-04-26T04:02:34.738Z,6.990356
2023-04-26T04:03:43.484Z,6.950073
2023-04-26T04:04:52.176Z,6.950073
2023-04-26T04:06:01.747Z,7.020569
2023-04-26T04:07:09.501Z,7.000427
2023-04-26T04:08:19.255Z,6.990356
2023-04-26T04:09:27.013Z,6.990356
2023-04-26T04:10:36.748Z,6.970215
2023-04-26T04:11:47.520Z,6.950073
2023-04-26T04:12:55.147Z,6.990356
2023-04-26T04:14:03.857Z,6.849365
2023-04-26T04:15:13.594Z,6.919861
2023-04-26T04:16:22.347Z,6.929932
2023-04-26T04:17:32.050Z,7.000427
2023-04-26T04:18:41.711Z,6.929932
2023-04-26T04:19:49.410Z,6.929932
2023-04-26T04:20:59.042Z,6.990356
2023-04-26T04:22:08.725Z,7.131348
2023-04-26T04:23:17.402Z,7.131348
2023-04-26T04:24:27.109Z,7.232056
2023-04-26T04:25:35.796Z,7.252197
2023-04-26T04:26:45.441Z,7.252197
2023-04-26T04:27:54.164Z,7.232056
2023-04-26T04:29:01.850Z,7.211914
2023-04-26T04:30:11.605Z,7.252197
2023-04-26T04:31:20.309Z,7.312622
2023-04-26T04:32:28.028Z,7.252197
2023-04-26T04:33:37.715Z,7.232056
2023-04-26T04:34:49.468Z,7.28241
2023-04-26T04:35:57.107Z,7.242126
2023-04-26T04:37:06.869Z,7.070923
2023-04-26T04:38:15.571Z,7.101135
2023-04-26T04:39:25.291Z,7.171631
2023-04-26T04:40:34.974Z,7.232056
2023-04-26T04:41:44.698Z,7.171631
2023-04-26T04:42:54.412Z,7.141418
2023-04-26T04:44:03.096Z,7.211914
2023-04-26T04:45:12.823Z,7.211914
2023-04-26T04:46:22.528Z,7.29248
2023-04-26T04:47:32.445Z,7.171631
2023-04-26T04:48:41.959Z,7.201843
2023-04-26T04:49:50.671Z,7.060852
2023-04-26T04:51:00.432Z,7.101135
2023-04-26T04:52:10.088Z,7.101135
2023-04-26T04:53:19.821Z,7.101135
2023-04-26T04:54:29.537Z,7.141418
2023-04-26T04:55:39.280Z,7.201843
2023-04-26T04:56:48.961Z,7.232056
2023-04-26T04:57:58.665Z,7.29248
2023-04-26T04:59:07.340Z,7.252197
2023-04-26T05:00:16.016Z,7.232056
2023-04-26T05:01:25.743Z,7.211914
2023-04-26T05:02:33.507Z,7.111206
2023-04-26T05:03:43.320Z,7.252197
2023-04-26T05:04:52.877Z,7.252197
2023-04-26T05:06:00.564Z,7.312622
2023-04-26T05:07:10.250Z,7.28241
2023-04-26T05:08:17.897Z,7.332764
2023-04-26T05:09:26.580Z,7.362976
2023-04-26T05:10:36.264Z,7.423401
2023-04-26T05:11:44.980Z,7.383118
2023-04-26T05:12:53.714Z,7.332764
2023-04-26T05:14:03.403Z,7.393188
2023-04-26T05:15:12.103Z,7.403259
2023-04-26T05:16:20.839Z,7.383118
2023-04-26T05:17:30.488Z,7.473755
2023-04-26T05:18:40.170Z,7.54425
2023-04-26T05:19:49.814Z,7.483826
2023-04-26T05:20:59.477Z,7.614746
2023-04-26T05:22:07.168Z,7.604675
2023-04-26T05:23:16.868Z,7.54425
2023-04-26T05:24:25.540Z,7.685242
2023-04-26T05:25:35.299Z,7.725525
2023-04-26T05:26:45.001Z,7.725525
2023-04-26T05:27:53.689Z,7.765808
2023-04-26T05:29:03.414Z,7.715454
2023-04-26T05:30:13.102Z,7.6651
2023-04-26T05:31:21.796Z,7.695312
2023-04-26T05:32:31.519Z,7.614746
2023-04-26T05:33:39.183Z,7.655029
2023-04-26T05:34:48.865Z,7.6651
2023-04-26T05:35:58.589Z,7.725525
2023-04-26T05:37:07.276Z,7.816162
2023-04-26T05:38:15.939Z,7.78595
2023-04-26T05:39:24.649Z,7.906799
2023-04-26T05:40:32.399Z,7.816162
2023-04-26T05:41:42.088Z,7.755737
2023-04-26T05:42:50.772Z,7.78595
2023-04-26T05:43:59.444Z,7.816162
2023-04-26T05:45:09.192Z,7.937012
2023-04-26T05:46:16.998Z,7.977295
2023-04-26T05:47:26.638Z,8.047791
2023-04-26T05:48:35.277Z,8.057861
2023-04-26T05:49:43.963Z,8.128357
2023-04-26T05:50:54.703Z,8.047791
2023-04-26T05:52:03.374Z,7.967224
2023-04-26T05:53:13.047Z,7.816162
2023-04-26T05:54:22.758Z,7.796021
2023-04-26T05:55:32.458Z,7.655029
2023-04-26T05:56:42.140Z,7.634888
2023-04-26T05:57:50.897Z,7.796021
2023-04-26T05:58:59.475Z,7.937012
2023-04-26T06:00:09.165Z,7.937012
2023-04-26T06:01:17.869Z,7.926941
2023-04-26T06:02:26.619Z,7.926941
2023-04-26T06:03:36.512Z,7.947083
2023-04-26T06:04:44.992Z,7.896729
2023-04-26T06:05:54.650Z,7.906799
2023-04-26T06:07:04.305Z,7.876587
2023-04-26T06:08:13.098Z,7.926941
2023-04-26T06:09:22.777Z,8.027649
2023-04-26T06:10:32.469Z,8.158569
2023-04-26T06:11:42.277Z,8.027649
2023-04-26T06:12:51.911Z,8.047791
2023-04-26T06:14:01.618Z,8.128357
2023-04-26T06:15:12.314Z,8.128357
2023-04-26T06:16:22.016Z,8.259277
2023-04-26T06:17:29.717Z,8.198853
2023-04-26T06:18:38.411Z,8.198853
2023-04-26T06:19:47.162Z,8.088074
2023-04-26T06:20:54.857Z,8.158569
2023-04-26T06:22:04.551Z,8.118286
2023-04-26T06:23:13.238Z,8.148499
2023-04-26T06:24:22.943Z,8.269348
2023-04-26T06:25:32.636Z,8.370056
2023-04-26T06:26:41.343Z,8.279419
2023-04-26T06:27:51.001Z,8.269348
2023-04-26T06:28:58.687Z,8.269348
2023-04-26T06:30:07.371Z,8.339844
2023-04-26T06:31:17.210Z,8.359985
2023-04-26T06:32:25.811Z,8.410339
2023-04-26T06:33:35.502Z,8.440552
2023-04-26T06:34:44.210Z,8.440552
2023-04-26T06:35:51.933Z,8.551331
2023-04-26T06:37:01.654Z,8.460693
2023-04-26T06:38:10.366Z,8.370056
2023-04-26T06:39:19.060Z,8.178711
2023-04-26T06:40:28.882Z,8.269348
2023-04-26T06:41:37.598Z,8.299561
2023-04-26T06:42:47.304Z,8.410339
2023-04-26T06:43:56.993Z,8.531189
2023-04-26T06:45:05.710Z,8.611755
2023-04-26T06:46:15.408Z,8.67218
2023-04-26T06:47:23.147Z,8.79303
2023-04-26T06:48:31.767Z,8.873596
2023-04-26T06:49:41.419Z,8.823242
2023-04-26T06:50:49.099Z,8.853455
2023-04-26T06:51:57.800Z,8.813171
2023-04-26T06:53:06.530Z,8.762817
2023-04-26T06:54:14.199Z,9.024658
2023-04-26T06:55:24.078Z,8.843384
2023-04-26T06:56:34.932Z,8.581543
2023-04-26T06:57:44.397Z,8.843384
2023-04-26T06:58:54.072Z,9.135437
2023-04-26T07:00:02.791Z,9.246216
2023-04-26T07:01:12.504Z,8.994446
2023-04-26T07:03:28.931Z,9.034729
2023-04-26T07:04:38.723Z,9.286499
2023-04-26T07:05:48.213Z,9.216003
2023-04-26T07:06:55.905Z,8.994446
2023-04-26T07:08:05.571Z,8.873596
2023-04-26T07:09:14.284Z,8.974304
2023-04-26T07:10:22.972Z,9.0448
2023-04-26T07:11:32.706Z,9.075012
2023-04-26T07:12:41.495Z,9.125366
2023-04-26T07:13:51.309Z,9.125366
2023-04-26T07:15:00.778Z,9.256287
2023-04-26T07:16:10.532Z,9.276428
2023-04-26T07:17:20.203Z,9.336853
2023-04-26T07:18:29.893Z,9.558411
2023-04-26T07:19:38.532Z,9.769897
2023-04-26T07:20:48.228Z,9.910889
2023-04-26T07:21:56.977Z,10.162659
2023-04-26T07:23:05.703Z,10.30365
2023-04-26T07:24:15.406Z,10.092163
2023-04-26T07:25:25.117Z,10.102234
2023-04-26T07:26:34.819Z,10.343933
2023-04-26T07:27:44.534Z,10.283508
2023-04-26T07:28:52.196Z,9.860535
2023-04-26T07:30:01.915Z,9.860535
2023-04-26T07:31:11.016Z,10.011597
2023-04-26T07:32:19.447Z,9.729614
2023-04-26T07:33:29.264Z,9.920959
2023-04-26T07:34:36.821Z,10.041809
2023-04-26T07:35:46.463Z,9.910889
2023-04-26T07:36:55.197Z,9.971313
2023-04-26T07:38:03.871Z,9.820251
2023-04-26T07:39:13.540Z,9.820251
2023-04-26T07:40:22.200Z,9.618835
2023-04-26T07:41:31.957Z,9.649048
2023-04-26T07:42:41.679Z,9.870605
2023-04-26T07:43:50.125Z,9.971313
2023-04-26T07:44:59.054Z,10.072021
2023-04-26T07:46:07.822Z,9.991455
2023-04-26T07:47:15.452Z,9.991455
2023-04-26T07:48:25.117Z,10.092163
2023-04-26T07:49:33.826Z,10.072021
2023-04-26T07:50:43.543Z,10.414429
2023-04-26T07:51:53.231Z,10.565491
2023-04-26T07:53:00.921Z,10.706482
2023-04-26T07:54:10.582Z,10.595703
2023-04-26T07:55:19.236Z,10.67627
2023-04-26T07:56:26.894Z,10.998535
2023-04-26T07:57:36.653Z,11.411438
2023-04-26T07:58:45.322Z,11.874695
2023-04-26T07:59:54.036Z,11.864624
2023-04-26T08:01:03.696Z,11.834412
2023-04-26T08:02:13.563Z,11.290588
2023-04-26T08:03:24.268Z,11.411438
2023-04-26T08:04:34.196Z,11.632996
2023-04-26T08:05:42.979Z,11.602783
2023-04-26T08:06:52.259Z,11.361084
2023-04-26T08:08:00.981Z,11.622925
2023-04-26T08:09:09.625Z,11.874695
2023-04-26T08:10:19.297Z,12.176819
2023-04-26T08:11:29.054Z,12.116394
2023-04-26T08:12:37.721Z,12.217102
2023-04-26T08:13:46.460Z,12.398376
2023-04-26T08:14:55.213Z,12.388306
2023-04-26T08:16:03.929Z,11.985474
2023-04-26T08:17:13.623Z,11.632996
2023-04-26T08:18:23.299Z,11.220093
2023-04-26T08:19:32.995Z,10.998535
2023-04-26T08:20:41.705Z,10.736694
2023-04-26T08:21:52.407Z,10.776978
2023-04-26T08:23:02.202Z,10.716553
2023-04-26T08:24:10.847Z,10.817261
2023-04-26T08:25:20.528Z,10.897827
2023-04-26T08:26:28.198Z,11.109314
2023-04-26T08:27:37.933Z,11.17981
2023-04-26T08:28:47.647Z,11.18988
2023-04-26T08:29:56.311Z,11.330872
2023-04-26T08:31:06.213Z,10.867615
2023-04-26T08:32:16.701Z,10.837402
2023-04-26T08:33:26.574Z,10.867615
2023-04-26T08:34:36.207Z,11.300659
2023-04-26T08:35:45.878Z,11.602783
2023-04-26T08:36:54.553Z,12.015686
2023-04-26T08:38:04.225Z,12.307739
2023-04-26T08:39:12.900Z,12.680359
2023-04-26T08:40:22.638Z,13.133545
2023-04-26T08:41:31.279Z,12.781067
2023-04-26T08:42:40.984Z,12.680359
2023-04-26T08:43:50.950Z,12.579651
2023-04-26T08:44:59.324Z,12.781067
2023-04-26T08:46:09.020Z,12.82135
2023-04-26T08:47:18.748Z,12.911987
2023-04-26T08:48:27.359Z,12.9422
2023-04-26T08:49:37.033Z,12.750854
2023-04-26T08:50:45.701Z,12.146606
2023-04-26T08:51:55.602Z,11.985474
2023-04-26T08:53:05.344Z,11.723633
2023-04-26T08:54:14.046Z,11.552429
2023-04-26T08:55:23.748Z,11.502075
2023-04-26T08:56:33.449Z,11.632996
2023-04-26T08:57:42.219Z,11.834412
2023-04-26T08:58:51.976Z,11.985474
2023-04-26T09:00:01.665Z,11.995544
2023-04-26T09:01:09.437Z,12.126465
2023-04-26T09:02:19.126Z,12.31781
2023-04-26T09:03:28.934Z,12.368164
2023-04-26T09:04:36.718Z,12.217102
2023-04-26T09:05:46.228Z,12.31781
2023-04-26T09:06:54.933Z,12.277527
2023-04-26T09:08:04.626Z,12.44873
2023-04-26T09:09:14.351Z,12.418518
2023-04-26T09:10:23.320Z,12.398376
2023-04-26T09:11:31.800Z,12.287598
2023-04-26T09:12:41.474Z,12.207031
2023-04-26T09:13:51.412Z,12.116394
2023-04-26T09:15:00.886Z,12.247314
2023-04-26T09:16:10.535Z,12.358093
2023-04-26T09:17:18.267Z,12.428589
2023-04-26T09:18:28.025Z,12.529297
2023-04-26T09:19:36.837Z,12.56958
2023-04-26T09:20:45.412Z,12.7005
2023-04-26T09:21:55.090Z,12.7005
2023-04-26T09:23:03.789Z,12.82135
2023-04-26T09:24:13.469Z,12.9422
2023-04-26T09:25:24.337Z,12.82135
2023-04-26T09:26:31.922Z,12.720642
2023-04-26T09:27:41.596Z,12.851562
2023-04-26T09:28:50.614Z,13.002625
2023-04-26T09:29:58.991Z,13.123474
2023-04-26T09:31:08.765Z,13.123474
2023-04-26T09:32:16.395Z,13.032837
2023-04-26T09:33:25.135Z,12.9422
2023-04-26T09:34:34.791Z,12.831421
2023-04-26T09:35:42.545Z,12.489014
2023-04-26T09:36:52.246Z,12.489014
2023-04-26T09:38:04.200Z,12.56958
2023-04-26T09:39:11.738Z,12.680359
2023-04-26T09:40:21.487Z,12.750854
2023-04-26T09:41:30.187Z,12.911987
2023-04-26T09:42:38.863Z,13.002625
2023-04-26T09:43:48.707Z,13.163757
2023-04-26T09:44:58.452Z,13.133545
2023-04-26T09:46:08.198Z,13.304749
2023-04-26T09:47:17.869Z,13.435669
2023-04-26T09:48:27.592Z,13.415527
2023-04-26T09:49:37.269Z,13.496094
2023-04-26T09:50:45.984Z,13.596802
2023-04-26T09:51:55.711Z,13.334961
2023-04-26T09:53:05.438Z,13.365173
2023-04-26T09:54:15.145Z,13.586731
2023-04-26T09:55:33.959Z,13.69751
2023-04-26T09:56:35.482Z,13.677368
2023-04-26T09:57:43.168Z,13.496094
2023-04-26T09:58:53.205Z,13.455811
2023-04-26T10:00:01.551Z,13.677368
2023-04-26T10:01:10.317Z,13.566589
2023-04-26T10:02:20.002Z,13.516235
2023-04-26T10:03:28.814Z,13.596802
2023-04-26T10:04:38.563Z,13.616943
2023-04-26T10:05:47.206Z,13.808289
2023-04-26T10:06:55.970Z,14.100342
2023-04-26T10:08:05.653Z,13.94928
2023-04-26T10:09:14.336Z,13.717651
2023-04-26T10:10:24.013Z,13.334961
2023-04-26T10:11:33.742Z,13.19397
2023-04-26T10:12:42.470Z,13.163757
2023-04-26T10:13:52.260Z,13.274536
2023-04-26T10:15:00.966Z,13.254395
2023-04-26T10:16:08.683Z,13.304749
2023-04-26T10:17:18.316Z,13.183899
2023-04-26T10:18:27.143Z,13.204041
2023-04-26T10:19:36.874Z,12.972412
2023-04-26T10:20:46.616Z,13.093262
2023-04-26T10:21:54.404Z,13.093262
2023-04-26T10:23:04.117Z,12.781067
2023-04-26T10:24:13.807Z,12.579651
2023-04-26T10:25:22.549Z,12.599792
2023-04-26T10:26:32.291Z,12.831421
2023-04-26T10:27:41.004Z,12.750854
2023-04-26T10:28:51.560Z,12.750854
2023-04-26T10:30:00.393Z,12.760925
2023-04-26T10:31:10.127Z,12.640076
2023-04-26T10:32:18.841Z,12.670288
2023-04-26T10:33:28.458Z,12.791138
2023-04-26T10:34:36.153Z,12.972412
2023-04-26T10:35:45.843Z,13.042908
2023-04-26T10:36:53.502Z,13.254395
2023-04-26T10:38:03.212Z,13.465881
2023-04-26T10:39:12.966Z,13.566589
2023-04-26T10:40:22.658Z,13.365173
2023-04-26T10:41:32.349Z,13.385315
2023-04-26T10:42:41.615Z,13.405457
2023-04-26T10:43:49.698Z,13.405457
2023-04-26T10:44:58.409Z,13.677368
2023-04-26T10:46:06.079Z,14.029846
2023-04-26T10:47:15.799Z,14.291687
2023-04-26T10:48:25.512Z,14.58374
2023-04-26T10:49:34.221Z,15.177917
2023-04-26T10:50:43.877Z,15.762024
2023-04-26T10:51:52.580Z,16.255493
2023-04-26T10:53:00.969Z,16.648254
2023-04-26T10:54:10.726Z,17.09137
2023-04-26T10:55:18.679Z,17.292786
2023-04-26T10:56:28.356Z,16.900024
2023-04-26T10:57:38.077Z,17.061157
2023-04-26T10:58:46.806Z,16.97052
2023-04-26T10:59:56.517Z,17.111511
2023-04-26T11:01:06.233Z,17.423706
2023-04-26T11:02:15.869Z,17.423706
2023-04-26T11:03:24.658Z,17.484131
2023-04-26T11:04:34.340Z,17.393494
2023-04-26T11:05:42.004Z,16.497192
2023-04-26T11:06:51.708Z,16.235352
2023-04-26T11:08:00.415Z,16.305847
2023-04-26T11:09:09.156Z,16.497192
2023-04-26T11:10:18.889Z,16.174927
2023-04-26T11:11:27.600Z,15.923157
2023-04-26T11:12:36.264Z,16.376343
2023-04-26T11:13:45.984Z,16.960449
2023-04-26T11:14:54.656Z,17.494202
2023-04-26T11:16:04.458Z,18.038025
2023-04-26T11:17:13.125Z,18.279724
2023-04-26T11:18:20.779Z,18.561707
2023-04-26T11:19:30.459Z,18.410645
2023-04-26T11:20:38.116Z,18.632202
2023-04-26T11:21:47.802Z,18.753052
2023-04-26T11:22:57.468Z,18.803406
2023-04-26T11:24:06.204Z,18.581848
2023-04-26T11:25:15.886Z,18.440857
2023-04-26T11:26:25.570Z,17.947388
2023-04-26T11:27:34.271Z,17.756042
2023-04-26T11:28:43.997Z,17.625122
2023-04-26T11:29:53.672Z,17.333069
2023-04-26T11:31:02.371Z,17.141724
2023-04-26T11:32:11.999Z,17.041016
2023-04-26T11:33:20.757Z,16.930237
2023-04-26T11:34:30.444Z,17.020874
2023-04-26T11:35:41.085Z,16.789246
2023-04-26T11:36:48.802Z,16.8396
2023-04-26T11:37:58.515Z,16.577759
2023-04-26T11:39:08.284Z,16.325989
2023-04-26T11:40:16.968Z,15.973511
2023-04-26T11:41:26.806Z,15.862732
2023-04-26T11:42:34.488Z,16.023865
2023-04-26T11:43:44.215Z,16.164856
2023-04-26T11:44:53.858Z,16.426697
2023-04-26T11:46:03.669Z,16.356201
2023-04-26T11:47:13.249Z,16.456909
2023-04-26T11:48:22.935Z,16.235352
2023-04-26T11:49:31.583Z,16.003723
2023-04-26T11:50:41.283Z,15.903015
2023-04-26T11:51:51.068Z,15.147705
2023-04-26T11:53:00.742Z,15.248413
2023-04-26T11:54:09.395Z,15.429688
2023-04-26T11:55:18.099Z,15.550537
2023-04-26T11:56:26.807Z,15.58075
2023-04-26T11:57:35.502Z,15.439758
2023-04-26T11:58:44.159Z,15.540466
2023-04-26T11:59:53.901Z,15.328979
2023-04-26T12:01:03.557Z,15.399475
2023-04-26T12:02:13.316Z,15.4599
2023-04-26T12:03:22.139Z,15.762024
2023-04-26T12:04:31.928Z,16.688538
2023-04-26T12:05:40.329Z,16.8396
2023-04-26T12:06:48.964Z,16.990662
2023-04-26T12:07:57.673Z,16.910095
2023-04-26T12:09:07.348Z,16.658325
2023-04-26T12:10:15.056Z,16.34613
2023-04-26T12:11:24.748Z,16.164856
2023-04-26T12:12:33.416Z,15.973511
2023-04-26T12:13:43.097Z,15.923157
2023-04-26T12:14:52.813Z,16.044006
2023-04-26T12:15:59.498Z,16.235352
2023-04-26T12:17:10.225Z,16.285706
2023-04-26T12:18:19.879Z,15.913086
2023-04-26T12:19:28.552Z,15.973511
2023-04-26T12:20:38.280Z,16.09436
2023-04-26T12:21:46.976Z,16.456909
2023-04-26T12:22:55.660Z,16.789246
2023-04-26T12:24:05.318Z,16.708679
2023-04-26T12:25:13.989Z,16.869812
2023-04-26T12:26:23.661Z,17.786255
2023-04-26T12:27:33.438Z,18.60199
2023-04-26T12:28:41.138Z,18.773193
2023-04-26T12:29:49.955Z,19.256592
2023-04-26T12:30:59.634Z,19.538574
2023-04-26T12:32:09.433Z,20.092468
2023-04-26T12:33:18.957Z,19.629211
2023-04-26T12:34:26.668Z,19.306946
2023-04-26T12:35:35.368Z,18.964539
2023-04-26T12:36:45.067Z,19.659424
2023-04-26T12:37:54.738Z,20.253601
2023-04-26T12:39:04.461Z,19.911194
2023-04-26T12:40:12.247Z,19.73999
2023-04-26T12:41:19.880Z,19.699707
2023-04-26T12:42:29.566Z,20.072327
2023-04-26T12:43:37.257Z,19.880981
2023-04-26T12:44:45.932Z,19.548645
2023-04-26T12:45:55.786Z,18.471069
2023-04-26T12:47:03.433Z,17.826538
2023-04-26T12:48:12.453Z,17.111511
2023-04-26T12:49:21.814Z,16.97052
2023-04-26T12:50:30.548Z,16.678467
2023-04-26T12:51:40.228Z,16.487122
2023-04-26T12:52:48.926Z,16.205139
2023-04-26T12:53:58.663Z,15.973511
2023-04-26T12:55:08.411Z,15.550537
2023-04-26T12:56:16.109Z,15.520325
2023-04-26T12:57:25.822Z,15.248413
2023-04-26T12:58:34.504Z,15.419617
2023-04-26T12:59:43.192Z,15.4599
2023-04-26T13:00:51.907Z,16.003723
2023-04-26T13:02:01.738Z,16.164856
2023-04-26T13:03:10.404Z,16.386414
2023-04-26T13:04:20.180Z,16.527405
2023-04-26T13:05:29.780Z,16.759033
2023-04-26T13:06:37.552Z,17.041016
2023-04-26T13:07:47.251Z,17.735901
2023-04-26T13:08:55.942Z,18.35022
2023-04-26T13:10:04.578Z,18.783264
2023-04-26T13:11:14.292Z,19.327087
2023-04-26T13:12:22.981Z,19.176025
2023-04-26T13:13:42.801Z,19.256592
2023-04-26T13:14:43.384Z,19.407654
2023-04-26T13:15:52.227Z,19.296875
2023-04-26T13:17:01.863Z,19.659424
2023-04-26T13:18:09.583Z,19.306946
2023-04-26T13:19:18.247Z,19.478149
2023-04-26T13:20:29.676Z,19.266663
2023-04-26T13:21:36.713Z,19.135742
2023-04-26T13:22:46.435Z,18.60199
2023-04-26T13:23:55.114Z,18.994751
2023-04-26T13:25:04.810Z,19.387512